/database/ambient_hr.db
nametemperaturehumiditybatterytime
ilp-imu-01 24.3 32.0 2.717 2024.04.22 10:15:23
ilp-imu-02 24.69 33.0 2.674 2024.04.22 10:15:13
ilp-kake-01 23.3 27.6 0.0 2024.04.22 10:15:06
kalamaja-01 1.77 61.0 2.034 2024.04.21 00:20:13
kalamaja-02 12.27 31.0 2.615 2024.04.22 10:15:11
keittio-01 21.1 30.6 0.0 2024.04.22 10:10:42
koppi-01 -2.45 77.0 2.275 2024.04.22 10:10:17
lvv-01 47.1 13.0 2.379 2024.01.16 10:20:27
mh-01 20.1 34.3 0.0 2024.04.22 10:10:04
mh-nurkka-02 13.91 50.0 2.632 2024.04.22 10:10:18
oh-01 20.5 33.5 0.0 2024.04.22 10:10:07
parvi-01 21.3 31.2 0.0 2024.04.22 10:10:13
poisto-01 19.0 41.0 0.0 2024.04.12 19:21:16
porras-01 22.36 38.0 2.087 2024.04.10 23:30:15
studio-01 20.67 37.0 2.375 2024.04.22 10:10:14
studio-02 19.32 38.0 2.369 2024.04.22 10:10:21
studio-nurkka-01 16.72 43.0 2.502 2024.04.22 10:11:26
studio-nurkka-02 16.27 41.0 2.464 2024.04.22 10:10:27
tv-01 22.4 28.8 0.0 2024.04.22 10:10:27
ulko-01 -2.07 75.0 2.27 2024.04.22 10:10:10
ulko-02 -3.0 85.0 2.379 2024.04.22 10:10:15
wc-01 20.1 50.8 0.0 2024.04.22 10:15:22

/database/ambient.db
nametemperaturehumiditybatterytime
ilp-imu-01 24.58 32.0 2.717 2024.04.22 10:00:22
ilp-imu-02 24.88 33.0 2.674 2024.04.22 10:00:30
ilp-kake-01 23.4 27.8 0.0 2024.04.22 10:00:07
kalamaja-01 1.77 61.0 2.034 2024.04.21 00:20:13
kalamaja-02 16.6 30.0 2.602 2024.04.22 10:00:18
keittio-01 21.1 30.6 0.0 2024.04.22 10:00:42
koppi-01 -2.64 76.0 2.246 2024.04.22 10:00:22
lvv-01 47.1 13.0 2.379 2024.01.16 10:20:27
mh-01 20.2 34.5 0.0 2024.04.22 10:00:13
mh-nurkka-02 13.91 50.0 2.632 2024.04.22 10:00:26
oh-01 20.4 33.5 0.0 2024.04.22 10:00:09
parvi-01 21.3 31.3 0.0 2024.04.22 10:00:16
poisto-01 19.0 41.0 0.0 2024.04.12 19:21:16
porras-01 22.72 38.0 2.087 2024.04.10 23:20:20
studio-01 20.63 37.0 2.375 2024.04.22 10:00:12
studio-02 19.3 38.0 2.369 2024.04.22 10:00:19
studio-nurkka-01 16.67 44.0 2.502 2024.04.22 10:00:30
studio-nurkka-02 16.19 41.0 2.464 2024.04.22 10:00:30
tv-01 22.5 28.6 0.0 2024.04.22 10:00:49
ulko-01 -2.36 75.0 2.27 2024.04.22 10:00:06
ulko-02 -3.26 86.0 2.379 2024.04.22 10:00:19
wc-01 20.2 50.8 0.0 2024.04.22 10:00:14

/database/instrument.db
nametemperaturehumiditybatterytime
apc-tt01 19.87 40.0 2.09 2024.04.19 13:40:22
kaappi01-01 19.7 54.0 0.0 2022.09.02 15:00:22
tho-dlx-tenor01 19.88 40.0 2.356 2024.03.04 07:41:07
uke01-01 19.94 40.0 2.553 2024.04.22 10:00:18